Terminal Aerodrome Forecast
Issued by NWS Jacksonville, FL

Home | Current Version | Previous Version | Text Only | Print | Product List | Glossary On
Versions: 1 2 3 4 5 6 7 8 9 10 11 12 13 14 15 16 17 18 19 20 21 22 23
000
FTUS42 KJAX 231100
TAFJAX
TAF
KJAX 231121Z 2312/2412 00000KT P6SM FEW025 SCT250
     FM231300 26004KT P6SM SCT025
     FM231900 16008KT P6SM SCT050
     FM240200 22004KT P6SM SCT250=

USA.gov is the U.S. government's official web portal to all federal, state and local government web resources and services.